sensor_id;sensor_type;location;lat;lon;timestamp;P1;durP1;ratioP1;P2;durP2;ratioP2
36241;SDS011;22283;42.748;12.732;2024-01-30T00:02:33;9.97;;;4.40;;
36241;SDS011;22283;42.748;12.732;2024-01-30T00:07:34;6.13;;;3.10;;
36241;SDS011;22283;42.748;12.732;2024-01-30T00:12:35;6.27;;;3.47;;
36241;SDS011;22283;42.748;12.732;2024-01-30T00:17:36;11.17;;;5.20;;
36241;SDS011;22283;42.748;12.732;2024-01-30T00:22:37;6.80;;;3.45;;
36241;SDS011;22283;42.748;12.732;2024-01-30T00:27:38;7.60;;;3.20;;
36241;SDS011;22283;42.748;12.732;2024-01-30T00:32:38;5.57;;;3.13;;
36241;SDS011;22283;42.748;12.732;2024-01-30T00:37:39;6.63;;;3.30;;
36241;SDS011;22283;42.748;12.732;2024-01-30T00:42:40;6.43;;;2.53;;
36241;SDS011;22283;42.748;12.732;2024-01-30T00:47:40;6.57;;;3.00;;
36241;SDS011;22283;42.748;12.732;2024-01-30T00:52:41;7.28;;;3.28;;
36241;SDS011;22283;42.748;12.732;2024-01-30T00:57:45;5.57;;;2.55;;
36241;SDS011;22283;42.748;12.732;2024-01-30T01:02:45;6.27;;;2.87;;
36241;SDS011;22283;42.748;12.732;2024-01-30T01:07:46;5.30;;;3.00;;
36241;SDS011;22283;42.748;12.732;2024-01-30T01:12:48;6.32;;;3.55;;
36241;SDS011;22283;42.748;12.732;2024-01-30T01:17:48;7.23;;;3.70;;
36241;SDS011;22283;42.748;12.732;2024-01-30T01:22:49;9.27;;;4.53;;
36241;SDS011;22283;42.748;12.732;2024-01-30T01:27:50;11.83;;;4.10;;
36241;SDS011;22283;42.748;12.732;2024-01-30T01:32:53;9.82;;;3.95;;
36241;SDS011;22283;42.748;12.732;2024-01-30T01:37:57;7.15;;;3.78;;
36241;SDS011;22283;42.748;12.732;2024-01-30T01:43:02;9.10;;;4.32;;
36241;SDS011;22283;42.748;12.732;2024-01-30T01:48:04;7.80;;;3.58;;
36241;SDS011;22283;42.748;12.732;2024-01-30T01:53:06;8.45;;;4.28;;
36241;SDS011;22283;42.748;12.732;2024-01-30T01:58:08;8.82;;;3.92;;
36241;SDS011;22283;42.748;12.732;2024-01-30T02:08:12;7.28;;;4.00;;
36241;SDS011;22283;42.748;12.732;2024-01-30T02:13:13;8.52;;;3.35;;
36241;SDS011;22283;42.748;12.732;2024-01-30T02:18:13;8.00;;;3.40;;
36241;SDS011;22283;42.748;12.732;2024-01-30T02:23:17;6.60;;;3.27;;
36241;SDS011;22283;42.748;12.732;2024-01-30T02:28:20;7.88;;;2.53;;
36241;SDS011;22283;42.748;12.732;2024-01-30T02:33:20;4.07;;;2.00;;
36241;SDS011;22283;42.748;12.732;2024-01-30T02:38:24;7.40;;;3.13;;
36241;SDS011;22283;42.748;12.732;2024-01-30T02:43:26;11.50;;;4.32;;
36241;SDS011;22283;42.748;12.732;2024-01-30T02:48:27;6.37;;;3.63;;
36241;SDS011;22283;42.748;12.732;2024-01-30T02:53:28;5.97;;;2.67;;
36241;SDS011;22283;42.748;12.732;2024-01-30T02:58:28;7.63;;;3.80;;
36241;SDS011;22283;42.748;12.732;2024-01-30T03:03:29;10.27;;;3.33;;
36241;SDS011;22283;42.748;12.732;2024-01-30T03:08:29;10.80;;;3.70;;
36241;SDS011;22283;42.748;12.732;2024-01-30T03:13:30;8.17;;;2.53;;
36241;SDS011;22283;42.748;12.732;2024-01-30T03:18:31;6.13;;;3.27;;
36241;SDS011;22283;42.748;12.732;2024-01-30T03:23:32;5.70;;;2.90;;
36241;SDS011;22283;42.748;12.732;2024-01-30T03:28:32;6.47;;;2.77;;
36241;SDS011;22283;42.748;12.732;2024-01-30T03:33:33;8.90;;;3.57;;
36241;SDS011;22283;42.748;12.732;2024-01-30T03:38:34;9.00;;;4.23;;
36241;SDS011;22283;42.748;12.732;2024-01-30T03:43:35;8.90;;;4.35;;
36241;SDS011;22283;42.748;12.732;2024-01-30T03:48:36;9.70;;;3.25;;
36241;SDS011;22283;42.748;12.732;2024-01-30T03:53:37;9.30;;;3.63;;
36241;SDS011;22283;42.748;12.732;2024-01-30T03:58:37;13.30;;;5.30;;
36241;SDS011;22283;42.748;12.732;2024-01-30T04:03:38;12.03;;;4.50;;
36241;SDS011;22283;42.748;12.732;2024-01-30T04:08:39;11.07;;;3.87;;
36241;SDS011;22283;42.748;12.732;2024-01-30T04:13:39;9.47;;;4.00;;
36241;SDS011;22283;42.748;12.732;2024-01-30T04:18:40;7.27;;;3.63;;
36241;SDS011;22283;42.748;12.732;2024-01-30T04:23:41;7.18;;;3.25;;
36241;SDS011;22283;42.748;12.732;2024-01-30T04:28:42;9.93;;;3.80;;
36241;SDS011;22283;42.748;12.732;2024-01-30T04:33:44;7.88;;;3.58;;
36241;SDS011;22283;42.748;12.732;2024-01-30T04:38:45;12.67;;;3.13;;
36241;SDS011;22283;42.748;12.732;2024-01-30T04:43:46;9.03;;;3.67;;
36241;SDS011;22283;42.748;12.732;2024-01-30T04:48:46;11.43;;;4.17;;
36241;SDS011;22283;42.748;12.732;2024-01-30T04:53:47;8.13;;;3.13;;
36241;SDS011;22283;42.748;12.732;2024-01-30T04:58:47;8.97;;;3.57;;
36241;SDS011;22283;42.748;12.732;2024-01-30T05:03:48;6.40;;;3.70;;
36241;SDS011;22283;42.748;12.732;2024-01-30T05:08:49;6.37;;;2.80;;
36241;SDS011;22283;42.748;12.732;2024-01-30T05:13:49;10.50;;;4.07;;
36241;SDS011;22283;42.748;12.732;2024-01-30T05:18:50;8.70;;;3.70;;
36241;SDS011;22283;42.748;12.732;2024-01-30T05:23:51;10.50;;;3.87;;
36241;SDS011;22283;42.748;12.732;2024-01-30T05:28:51;8.23;;;3.40;;
36241;SDS011;22283;42.748;12.732;2024-01-30T05:33:52;8.83;;;4.17;;
36241;SDS011;22283;42.748;12.732;2024-01-30T05:38:53;11.33;;;3.70;;
36241;SDS011;22283;42.748;12.732;2024-01-30T05:43:53;15.73;;;4.30;;
36241;SDS011;22283;42.748;12.732;2024-01-30T05:48:54;10.97;;;3.53;;
36241;SDS011;22283;42.748;12.732;2024-01-30T05:53:55;13.47;;;4.07;;
36241;SDS011;22283;42.748;12.732;2024-01-30T05:58:55;10.43;;;4.17;;
36241;SDS011;22283;42.748;12.732;2024-01-30T06:03:56;13.37;;;4.90;;
36241;SDS011;22283;42.748;12.732;2024-01-30T06:08:57;11.90;;;4.97;;
36241;SDS011;22283;42.748;12.732;2024-01-30T06:13:57;13.27;;;4.90;;
36241;SDS011;22283;42.748;12.732;2024-01-30T06:18:58;9.83;;;4.43;;
36241;SDS011;22283;42.748;12.732;2024-01-30T06:23:59;11.45;;;4.30;;
36241;SDS011;22283;42.748;12.732;2024-01-30T06:29:00;9.23;;;3.50;;
36241;SDS011;22283;42.748;12.732;2024-01-30T06:34:00;7.53;;;3.80;;
36241;SDS011;22283;42.748;12.732;2024-01-30T06:39:02;10.20;;;4.33;;
36241;SDS011;22283;42.748;12.732;2024-01-30T06:44:03;9.60;;;3.65;;
36241;SDS011;22283;42.748;12.732;2024-01-30T06:49:06;7.22;;;3.70;;
36241;SDS011;22283;42.748;12.732;2024-01-30T06:54:07;13.13;;;4.47;;
36241;SDS011;22283;42.748;12.732;2024-01-30T06:59:08;16.15;;;4.20;;
36241;SDS011;22283;42.748;12.732;2024-01-30T07:04:09;25.03;;;6.40;;
36241;SDS011;22283;42.748;12.732;2024-01-30T07:09:10;9.63;;;5.57;;
36241;SDS011;22283;42.748;12.732;2024-01-30T07:14:10;10.70;;;5.20;;
36241;SDS011;22283;42.748;12.732;2024-01-30T07:19:11;16.20;;;5.17;;
36241;SDS011;22283;42.748;12.732;2024-01-30T07:24:12;25.92;;;6.30;;
36241;SDS011;22283;42.748;12.732;2024-01-30T07:29:12;13.47;;;5.10;;
36241;SDS011;22283;42.748;12.732;2024-01-30T07:34:13;8.67;;;4.27;;
36241;SDS011;22283;42.748;12.732;2024-01-30T07:39:15;8.63;;;4.13;;
36241;SDS011;22283;42.748;12.732;2024-01-30T07:44:16;10.90;;;4.27;;
36241;SDS011;22283;42.748;12.732;2024-01-30T07:49:16;11.20;;;4.37;;
36241;SDS011;22283;42.748;12.732;2024-01-30T07:54:17;19.87;;;5.50;;
36241;SDS011;22283;42.748;12.732;2024-01-30T07:59:17;20.80;;;8.30;;
36241;SDS011;22283;42.748;12.732;2024-01-30T08:04:19;10.43;;;4.28;;
36241;SDS011;22283;42.748;12.732;2024-01-30T08:09:20;9.50;;;4.43;;
36241;SDS011;22283;42.748;12.732;2024-01-30T08:14:21;13.07;;;4.00;;
36241;SDS011;22283;42.748;12.732;2024-01-30T08:19:21;14.13;;;4.67;;
36241;SDS011;22283;42.748;12.732;2024-01-30T08:24:22;19.38;;;8.65;;
36241;SDS011;22283;42.748;12.732;2024-01-30T08:29:23;27.50;;;9.00;;
36241;SDS011;22283;42.748;12.732;2024-01-30T08:34:23;29.33;;;9.67;;
36241;SDS011;22283;42.748;12.732;2024-01-30T08:39:24;26.03;;;11.17;;
36241;SDS011;22283;42.748;12.732;2024-01-30T08:44:25;25.37;;;11.10;;
36241;SDS011;22283;42.748;12.732;2024-01-30T08:49:25;23.37;;;11.07;;
36241;SDS011;22283;42.748;12.732;2024-01-30T08:54:26;23.77;;;12.50;;
36241;SDS011;22283;42.748;12.732;2024-01-30T08:59:27;32.37;;;14.13;;
36241;SDS011;22283;42.748;12.732;2024-01-30T09:04:27;27.53;;;13.37;;
36241;SDS011;22283;42.748;12.732;2024-01-30T09:09:28;29.63;;;10.77;;
36241;SDS011;22283;42.748;12.732;2024-01-30T09:14:29;32.97;;;12.35;;
36241;SDS011;22283;42.748;12.732;2024-01-30T09:19:31;22.30;;;11.95;;
36241;SDS011;22283;42.748;12.732;2024-01-30T09:24:32;25.03;;;11.70;;
36241;SDS011;22283;42.748;12.732;2024-01-30T09:29:32;26.83;;;12.87;;
36241;SDS011;22283;42.748;12.732;2024-01-30T09:34:36;23.70;;;10.70;;
36241;SDS011;22283;42.748;12.732;2024-01-30T09:39:37;24.03;;;8.87;;
36241;SDS011;22283;42.748;12.732;2024-01-30T09:44:37;25.50;;;7.40;;
36241;SDS011;22283;42.748;12.732;2024-01-30T09:49:42;13.52;;;5.80;;
36241;SDS011;22283;42.748;12.732;2024-01-30T09:54:44;8.90;;;4.93;;
36241;SDS011;22283;42.748;12.732;2024-01-30T09:59:45;13.93;;;5.40;;
36241;SDS011;22283;42.748;12.732;2024-01-30T10:04:50;14.40;;;5.53;;
36241;SDS011;22283;42.748;12.732;2024-01-30T10:09:52;15.90;;;7.32;;
36241;SDS011;22283;42.748;12.732;2024-01-30T10:14:53;19.33;;;6.43;;
36241;SDS011;22283;42.748;12.732;2024-01-30T10:19:56;13.57;;;6.10;;
36241;SDS011;22283;42.748;12.732;2024-01-30T10:24:57;10.00;;;5.93;;
36241;SDS011;22283;42.748;12.732;2024-01-30T10:29:58;13.93;;;6.80;;
36241;SDS011;22283;42.748;12.732;2024-01-30T10:34:59;9.27;;;5.50;;
36241;SDS011;22283;42.748;12.732;2024-01-30T10:40:02;9.60;;;5.03;;
36241;SDS011;22283;42.748;12.732;2024-01-30T10:45:07;10.90;;;5.20;;
36241;SDS011;22283;42.748;12.732;2024-01-30T10:50:16;11.85;;;5.25;;
36241;SDS011;22283;42.748;12.732;2024-01-30T10:55:17;14.38;;;6.30;;
36241;SDS011;22283;42.748;12.732;2024-01-30T11:05:25;16.55;;;8.95;;
36241;SDS011;22283;42.748;12.732;2024-01-30T11:10:28;26.67;;;14.27;;
36241;SDS011;22283;42.748;12.732;2024-01-30T11:15:29;18.97;;;9.23;;
36241;SDS011;22283;42.748;12.732;2024-01-30T11:20:31;10.65;;;6.28;;
36241;SDS011;22283;42.748;12.732;2024-01-30T11:25:33;15.10;;;6.77;;
36241;SDS011;22283;42.748;12.732;2024-01-30T11:30:34;10.00;;;5.75;;
36241;SDS011;22283;42.748;12.732;2024-01-30T11:35:35;13.57;;;6.50;;
36241;SDS011;22283;42.748;12.732;2024-01-30T11:40:38;17.10;;;7.03;;
36241;SDS011;22283;42.748;12.732;2024-01-30T11:45:39;12.85;;;5.72;;
36241;SDS011;22283;42.748;12.732;2024-01-30T11:50:41;11.65;;;5.10;;
36241;SDS011;22283;42.748;12.732;2024-01-30T11:55:41;11.47;;;6.37;;
36241;SDS011;22283;42.748;12.732;2024-01-30T12:00:49;10.55;;;6.15;;
36241;SDS011;22283;42.748;12.732;2024-01-30T12:05:56;12.77;;;5.75;;
36241;SDS011;22283;42.748;12.732;2024-01-30T12:10:58;13.05;;;7.28;;
36241;SDS011;22283;42.748;12.732;2024-01-30T12:16:01;10.45;;;5.82;;
36241;SDS011;22283;42.748;12.732;2024-01-30T12:21:02;9.33;;;5.80;;
36241;SDS011;22283;42.748;12.732;2024-01-30T12:26:03;10.40;;;6.27;;
36241;SDS011;22283;42.748;12.732;2024-01-30T12:31:07;16.50;;;6.65;;
36241;SDS011;22283;42.748;12.732;2024-01-30T12:36:09;14.55;;;8.23;;
36241;SDS011;22283;42.748;12.732;2024-01-30T12:41:11;18.83;;;10.25;;
36241;SDS011;22283;42.748;12.732;2024-01-30T12:46:12;13.90;;;7.30;;
36241;SDS011;22283;42.748;12.732;2024-01-30T12:51:13;11.20;;;6.20;;
36241;SDS011;22283;42.748;12.732;2024-01-30T12:56:13;13.67;;;5.97;;
36241;SDS011;22283;42.748;12.732;2024-01-30T13:01:15;10.38;;;6.07;;
36241;SDS011;22283;42.748;12.732;2024-01-30T13:06:15;12.80;;;6.70;;
36241;SDS011;22283;42.748;12.732;2024-01-30T13:11:16;13.80;;;6.43;;
36241;SDS011;22283;42.748;12.732;2024-01-30T13:16:17;12.48;;;6.55;;
36241;SDS011;22283;42.748;12.732;2024-01-30T13:21:18;7.23;;;3.77;;
36241;SDS011;22283;42.748;12.732;2024-01-30T13:26:19;8.73;;;3.63;;
36241;SDS011;22283;42.748;12.732;2024-01-30T13:31:20;6.85;;;3.65;;
36241;SDS011;22283;42.748;12.732;2024-01-30T13:36:21;9.40;;;3.43;;
36241;SDS011;22283;42.748;12.732;2024-01-30T13:41:22;7.63;;;3.45;;
36241;SDS011;22283;42.748;12.732;2024-01-30T13:46:23;8.90;;;3.60;;
36241;SDS011;22283;42.748;12.732;2024-01-30T13:51:23;9.77;;;3.67;;
36241;SDS011;22283;42.748;12.732;2024-01-30T13:56:24;6.77;;;3.67;;
36241;SDS011;22283;42.748;12.732;2024-01-30T14:01:27;5.68;;;3.30;;
36241;SDS011;22283;42.748;12.732;2024-01-30T14:06:27;15.03;;;4.57;;
36241;SDS011;22283;42.748;12.732;2024-01-30T14:11:28;13.23;;;5.80;;
36241;SDS011;22283;42.748;12.732;2024-01-30T14:16:29;13.30;;;6.37;;
36241;SDS011;22283;42.748;12.732;2024-01-30T14:21:29;10.33;;;6.50;;
36241;SDS011;22283;42.748;12.732;2024-01-30T14:26:30;16.93;;;8.20;;
36241;SDS011;22283;42.748;12.732;2024-01-30T14:31:30;12.97;;;6.10;;
36241;SDS011;22283;42.748;12.732;2024-01-30T14:36:31;13.90;;;7.17;;
36241;SDS011;22283;42.748;12.732;2024-01-30T14:41:32;11.50;;;6.07;;
36241;SDS011;22283;42.748;12.732;2024-01-30T14:46:33;10.90;;;6.03;;
36241;SDS011;22283;42.748;12.732;2024-01-30T14:51:33;21.20;;;12.70;;
36241;SDS011;22283;42.748;12.732;2024-01-30T14:56:34;15.77;;;8.47;;
36241;SDS011;22283;42.748;12.732;2024-01-30T15:01:35;14.27;;;8.33;;
36241;SDS011;22283;42.748;12.732;2024-01-30T15:06:35;21.87;;;12.77;;
36241;SDS011;22283;42.748;12.732;2024-01-30T15:11:36;21.70;;;10.97;;
36241;SDS011;22283;42.748;12.732;2024-01-30T15:16:37;17.87;;;9.23;;
36241;SDS011;22283;42.748;12.732;2024-01-30T15:21:38;23.43;;;8.00;;
36241;SDS011;22283;42.748;12.732;2024-01-30T15:26:38;20.33;;;6.50;;
36241;SDS011;22283;42.748;12.732;2024-01-30T15:31:39;27.60;;;8.50;;
36241;SDS011;22283;42.748;12.732;2024-01-30T15:36:39;11.83;;;6.50;;
36241;SDS011;22283;42.748;12.732;2024-01-30T15:41:41;28.27;;;12.07;;
36241;SDS011;22283;42.748;12.732;2024-01-30T15:46:41;27.95;;;12.68;;
36241;SDS011;22283;42.748;12.732;2024-01-30T15:51:42;33.03;;;13.40;;
36241;SDS011;22283;42.748;12.732;2024-01-30T15:56:42;22.63;;;11.60;;
36241;SDS011;22283;42.748;12.732;2024-01-30T16:01:43;24.83;;;12.13;;
36241;SDS011;22283;42.748;12.732;2024-01-30T16:06:49;23.40;;;13.60;;
36241;SDS011;22283;42.748;12.732;2024-01-30T16:11:49;32.10;;;14.33;;
36241;SDS011;22283;42.748;12.732;2024-01-30T16:16:50;32.57;;;12.80;;
36241;SDS011;22283;42.748;12.732;2024-01-30T16:21:51;35.70;;;14.33;;
36241;SDS011;22283;42.748;12.732;2024-01-30T16:26:52;30.13;;;13.50;;
36241;SDS011;22283;42.748;12.732;2024-01-30T16:31:52;23.37;;;13.83;;
36241;SDS011;22283;42.748;12.732;2024-01-30T16:36:53;25.57;;;14.13;;
36241;SDS011;22283;42.748;12.732;2024-01-30T16:41:54;26.20;;;13.27;;
36241;SDS011;22283;42.748;12.732;2024-01-30T16:46:54;27.83;;;12.90;;
36241;SDS011;22283;42.748;12.732;2024-01-30T16:51:55;29.73;;;13.97;;
36241;SDS011;22283;42.748;12.732;2024-01-30T16:56:56;30.97;;;14.97;;
36241;SDS011;22283;42.748;12.732;2024-01-30T17:01:56;30.40;;;15.10;;
36241;SDS011;22283;42.748;12.732;2024-01-30T17:06:57;29.13;;;15.43;;
36241;SDS011;22283;42.748;12.732;2024-01-30T17:11:59;25.23;;;13.68;;
36241;SDS011;22283;42.748;12.732;2024-01-30T17:17:03;25.15;;;13.55;;
36241;SDS011;22283;42.748;12.732;2024-01-30T17:22:04;27.60;;;14.43;;
36241;SDS011;22283;42.748;12.732;2024-01-30T17:27:06;22.80;;;12.60;;
36241;SDS011;22283;42.748;12.732;2024-01-30T17:32:07;22.13;;;11.27;;
36241;SDS011;22283;42.748;12.732;2024-01-30T17:37:08;27.83;;;10.83;;
36241;SDS011;22283;42.748;12.732;2024-01-30T17:42:08;25.03;;;11.80;;
36241;SDS011;22283;42.748;12.732;2024-01-30T17:47:09;24.83;;;12.10;;
36241;SDS011;22283;42.748;12.732;2024-01-30T17:52:10;20.00;;;11.20;;
36241;SDS011;22283;42.748;12.732;2024-01-30T17:57:11;26.17;;;13.67;;
36241;SDS011;22283;42.748;12.732;2024-01-30T18:02:12;22.20;;;12.47;;
36241;SDS011;22283;42.748;12.732;2024-01-30T18:07:15;27.58;;;13.98;;
36241;SDS011;22283;42.748;12.732;2024-01-30T18:12:16;27.87;;;14.77;;
36241;SDS011;22283;42.748;12.732;2024-01-30T18:17:16;21.40;;;12.67;;
36241;SDS011;22283;42.748;12.732;2024-01-30T18:22:17;19.93;;;10.83;;
36241;SDS011;22283;42.748;12.732;2024-01-30T18:32:37;25.85;;;12.75;;
36241;SDS011;22283;42.748;12.732;2024-01-30T18:37:37;32.97;;;14.37;;
36241;SDS011;22283;42.748;12.732;2024-01-30T18:42:38;31.13;;;13.03;;
36241;SDS011;22283;42.748;12.732;2024-01-30T18:47:39;26.17;;;14.18;;
36241;SDS011;22283;42.748;12.732;2024-01-30T18:52:40;25.20;;;15.60;;
36241;SDS011;22283;42.748;12.732;2024-01-30T18:57:41;49.33;;;25.27;;
36241;SDS011;22283;42.748;12.732;2024-01-30T19:02:41;31.07;;;16.43;;
36241;SDS011;22283;42.748;12.732;2024-01-30T19:07:42;31.90;;;16.90;;
36241;SDS011;22283;42.748;12.732;2024-01-30T19:12:42;23.87;;;13.67;;
36241;SDS011;22283;42.748;12.732;2024-01-30T19:17:44;27.13;;;14.50;;
36241;SDS011;22283;42.748;12.732;2024-01-30T19:22:45;25.17;;;13.70;;
36241;SDS011;22283;42.748;12.732;2024-01-30T19:27:46;28.27;;;15.60;;
36241;SDS011;22283;42.748;12.732;2024-01-30T19:32:46;27.17;;;12.30;;
36241;SDS011;22283;42.748;12.732;2024-01-30T19:37:47;23.13;;;12.97;;
36241;SDS011;22283;42.748;12.732;2024-01-30T19:42:47;40.27;;;20.40;;
36241;SDS011;22283;42.748;12.732;2024-01-30T19:47:51;39.80;;;19.65;;
36241;SDS011;22283;42.748;12.732;2024-01-30T19:52:55;32.08;;;18.60;;
36241;SDS011;22283;42.748;12.732;2024-01-30T19:57:56;40.63;;;22.70;;
36241;SDS011;22283;42.748;12.732;2024-01-30T20:02:57;25.93;;;13.73;;
36241;SDS011;22283;42.748;12.732;2024-01-30T20:07:57;21.23;;;12.07;;
36241;SDS011;22283;42.748;12.732;2024-01-30T20:12:58;29.37;;;14.77;;
36241;SDS011;22283;42.748;12.732;2024-01-30T20:17:58;25.00;;;14.27;;
36241;SDS011;22283;42.748;12.732;2024-01-30T20:22:59;22.63;;;13.80;;
36241;SDS011;22283;42.748;12.732;2024-01-30T20:27:59;21.37;;;11.47;;
36241;SDS011;22283;42.748;12.732;2024-01-30T20:33:00;61.20;;;30.80;;
36241;SDS011;22283;42.748;12.732;2024-01-30T20:38:01;32.60;;;17.80;;
36241;SDS011;22283;42.748;12.732;2024-01-30T20:43:01;29.73;;;15.23;;
36241;SDS011;22283;42.748;12.732;2024-01-30T20:48:02;21.63;;;12.23;;
36241;SDS011;22283;42.748;12.732;2024-01-30T20:53:03;24.25;;;12.13;;
36241;SDS011;22283;42.748;12.732;2024-01-30T20:58:04;24.33;;;11.37;;
36241;SDS011;22283;42.748;12.732;2024-01-30T21:03:05;19.93;;;11.20;;
36241;SDS011;22283;42.748;12.732;2024-01-30T21:08:05;17.37;;;9.97;;
36241;SDS011;22283;42.748;12.732;2024-01-30T21:13:06;17.90;;;11.53;;
36241;SDS011;22283;42.748;12.732;2024-01-30T21:18:07;19.37;;;11.13;;
36241;SDS011;22283;42.748;12.732;2024-01-30T21:23:08;20.33;;;9.95;;
36241;SDS011;22283;42.748;12.732;2024-01-30T21:28:09;19.77;;;10.50;;
36241;SDS011;22283;42.748;12.732;2024-01-30T21:33:12;16.98;;;9.07;;
36241;SDS011;22283;42.748;12.732;2024-01-30T21:38:12;23.53;;;10.27;;
36241;SDS011;22283;42.748;12.732;2024-01-30T21:43:15;21.55;;;10.02;;
36241;SDS011;22283;42.748;12.732;2024-01-30T21:48:16;21.90;;;11.80;;
36241;SDS011;22283;42.748;12.732;2024-01-30T21:53:17;17.57;;;10.37;;
36241;SDS011;22283;42.748;12.732;2024-01-30T21:58:17;18.13;;;9.70;;
36241;SDS011;22283;42.748;12.732;2024-01-30T22:03:18;20.83;;;11.43;;
36241;SDS011;22283;42.748;12.732;2024-01-30T22:08:19;27.93;;;14.87;;
36241;SDS011;22283;42.748;12.732;2024-01-30T22:13:19;21.27;;;10.60;;
36241;SDS011;22283;42.748;12.732;2024-01-30T22:18:22;20.70;;;10.63;;
36241;SDS011;22283;42.748;12.732;2024-01-30T22:23:23;20.40;;;10.50;;
36241;SDS011;22283;42.748;12.732;2024-01-30T22:28:24;59.43;;;23.77;;
36241;SDS011;22283;42.748;12.732;2024-01-30T22:33:25;32.53;;;15.43;;
36241;SDS011;22283;42.748;12.732;2024-01-30T22:38:26;35.83;;;13.80;;
36241;SDS011;22283;42.748;12.732;2024-01-30T22:43:27;34.00;;;15.32;;
36241;SDS011;22283;42.748;12.732;2024-01-30T22:48:30;30.38;;;13.45;;
36241;SDS011;22283;42.748;12.732;2024-01-30T22:53:30;22.70;;;9.17;;
36241;SDS011;22283;42.748;12.732;2024-01-30T22:58:31;14.60;;;8.53;;
36241;SDS011;22283;42.748;12.732;2024-01-30T23:03:32;25.77;;;11.27;;
36241;SDS011;22283;42.748;12.732;2024-01-30T23:08:32;21.00;;;11.23;;
36241;SDS011;22283;42.748;12.732;2024-01-30T23:13:33;20.60;;;10.13;;
36241;SDS011;22283;42.748;12.732;2024-01-30T23:18:34;17.47;;;9.60;;
36241;SDS011;22283;42.748;12.732;2024-01-30T23:23:34;16.57;;;8.90;;
36241;SDS011;22283;42.748;12.732;2024-01-30T23:28:35;14.90;;;8.53;;
36241;SDS011;22283;42.748;12.732;2024-01-30T23:33:36;19.33;;;8.23;;
36241;SDS011;22283;42.748;12.732;2024-01-30T23:38:36;16.43;;;7.70;;
36241;SDS011;22283;42.748;12.732;2024-01-30T23:43:37;20.53;;;9.53;;
36241;SDS011;22283;42.748;12.732;2024-01-30T23:48:37;19.47;;;8.07;;
36241;SDS011;22283;42.748;12.732;2024-01-30T23:53:38;19.63;;;7.87;;
36241;SDS011;22283;42.748;12.732;2024-01-30T23:58:39;17.33;;;8.43;;
